createdAt,value
2019-05-13T00:02:24.016Z,1.20
2019-05-13T00:07:13.631Z,1.07
2019-05-13T00:12:04.990Z,1.23
2019-05-13T00:16:55.446Z,1.50
2019-05-13T00:21:47.081Z,1.07
2019-05-13T00:26:38.713Z,1.10
2019-05-13T00:31:30.358Z,0.83
2019-05-13T00:36:21.263Z,1.20
2019-05-13T00:41:14.199Z,1.03
2019-05-13T00:46:04.069Z,1.13
2019-05-13T00:50:54.770Z,1.03
2019-05-13T00:55:45.657Z,1.47
2019-05-13T01:00:37.281Z,1.30
2019-05-13T01:05:28.162Z,1.00
2019-05-13T01:10:19.049Z,1.70
2019-05-13T01:15:09.926Z,1.47
2019-05-13T01:20:00.804Z,1.20
2019-05-13T01:24:54.049Z,1.67
2019-05-13T01:29:43.521Z,1.10
2019-05-13T01:34:34.033Z,1.47
2019-05-13T01:39:24.515Z,1.10
2019-05-13T01:44:15.346Z,1.20
2019-05-13T01:49:06.225Z,1.52
2019-05-13T01:53:57.119Z,1.20
2019-05-13T01:58:48.017Z,1.50
2019-05-13T02:03:39.652Z,1.90
2019-05-13T02:08:33.470Z,1.20
2019-05-13T02:13:24.455Z,1.43
2019-05-13T02:18:13.882Z,1.40
2019-05-13T02:23:04.765Z,1.40
2019-05-13T02:27:55.661Z,1.45
2019-05-13T02:32:46.553Z,1.20
2019-05-13T02:37:38.187Z,1.40
2019-05-13T02:42:29.074Z,1.40
2019-05-13T02:47:22.592Z,1.33
2019-05-13T02:52:13.245Z,1.40
2019-05-13T02:57:03.702Z,1.30
2019-05-13T03:01:53.593Z,1.20
2019-05-13T03:06:44.365Z,1.20
2019-05-13T03:11:35.287Z,1.50
2019-05-13T03:16:28.149Z,1.57
2019-05-13T03:21:22.847Z,1.37
2019-05-13T03:26:13.035Z,1.97
2019-05-13T03:31:06.173Z,1.10
2019-05-13T03:35:55.651Z,1.93
2019-05-13T03:40:44.875Z,1.43
2019-05-13T03:45:36.508Z,1.77
2019-05-13T03:50:31.504Z,1.50
2019-05-13T03:55:22.608Z,1.57
2019-05-13T04:00:12.890Z,1.30
2019-05-13T04:05:04.175Z,1.53
2019-05-13T04:09:52.511Z,1.10
2019-05-13T04:14:42.739Z,2.23
2019-05-13T04:19:34.390Z,1.47
2019-05-13T04:24:26.011Z,1.20
2019-05-13T04:29:17.637Z,1.37
2019-05-13T04:34:08.526Z,1.50
2019-05-13T04:38:59.417Z,1.67
2019-05-13T04:43:53.667Z,1.40
2019-05-13T04:48:44.158Z,1.93
2019-05-13T04:53:33.519Z,1.67
2019-05-13T04:58:24.514Z,1.20
2019-05-13T05:03:22.747Z,1.20
2019-05-13T05:08:12.169Z,1.50
2019-05-13T05:13:12.994Z,1.27
2019-05-13T05:18:22.194Z,2.00
2019-05-13T05:28:41.474Z,1.87
2019-05-13T05:33:41.063Z,1.70
2019-05-13T05:38:32.174Z,2.03
2019-05-13T05:43:23.061Z,1.67
2019-05-13T05:48:14.542Z,2.50
2019-05-13T05:53:05.434Z,1.83
2019-05-13T05:57:56.331Z,2.00
2019-05-13T06:02:47.227Z,2.30
2019-05-13T06:07:38.865Z,2.45
2019-05-13T06:12:31.484Z,2.03
2019-05-13T06:17:22.044Z,2.37
2019-05-13T06:22:13.049Z,1.80
2019-05-13T06:27:04.670Z,2.53
2019-05-13T06:31:55.555Z,2.10
2019-05-13T06:36:46.437Z,2.33
2019-05-13T06:41:38.101Z,2.45
2019-05-13T06:46:28.990Z,2.47
2019-05-13T06:51:22.211Z,1.70
2019-05-13T06:56:12.227Z,2.03
2019-05-13T07:01:04.134Z,2.60
2019-05-13T07:05:54.250Z,2.13
2019-05-13T07:10:45.874Z,2.13
2019-05-13T07:15:36.886Z,2.13
2019-05-13T07:20:27.784Z,2.53
2019-05-13T07:25:18.822Z,2.33
2019-05-13T07:30:11.305Z,1.73
2019-05-13T07:35:03.970Z,1.47
2019-05-13T07:39:53.056Z,2.20
2019-05-13T07:44:42.487Z,2.43
2019-05-13T07:49:33.519Z,1.67
2019-05-13T07:54:24.285Z,1.30
2019-05-13T07:59:15.182Z,2.65
2019-05-13T08:04:06.070Z,2.40
2019-05-13T08:08:56.966Z,2.90
2019-05-13T08:13:47.881Z,2.30
2019-05-13T08:18:38.760Z,2.10
2019-05-13T08:23:32.140Z,1.90
2019-05-13T08:28:22.517Z,1.90
2019-05-13T08:33:12.530Z,1.80
2019-05-13T08:38:02.373Z,2.33
2019-05-13T08:42:53.264Z,2.60
2019-05-13T08:47:44.204Z,2.30
2019-05-13T08:52:35.050Z,2.37
2019-05-13T08:57:25.987Z,1.50
2019-05-13T09:02:16.958Z,1.40
2019-05-13T09:07:08.628Z,1.77
2019-05-13T09:12:02.079Z,1.73
2019-05-13T09:16:52.647Z,1.67
2019-05-13T09:21:42.343Z,1.80
2019-05-13T09:26:32.968Z,1.83
2019-05-13T09:31:23.845Z,2.23
2019-05-13T09:36:14.742Z,1.90
2019-05-13T09:41:05.626Z,1.63
2019-05-13T09:45:57.263Z,1.90
2019-05-13T09:50:51.499Z,2.37
2019-05-13T09:55:41.485Z,1.27
2019-05-13T10:00:32.298Z,1.87
2019-05-13T10:05:22.364Z,1.47
2019-05-13T10:10:12.590Z,1.30
2019-05-13T10:15:03.569Z,1.83
2019-05-13T10:19:54.438Z,1.62
2019-05-13T10:24:45.346Z,1.75
2019-05-13T10:29:36.233Z,1.80
2019-05-13T10:34:27.174Z,1.30
2019-05-13T10:39:18.801Z,1.27
2019-05-13T10:44:12.129Z,1.10
2019-05-13T10:49:02.062Z,1.70
2019-05-13T10:53:59.029Z,1.50
2019-05-13T10:58:43.938Z,1.75
2019-05-13T11:03:34.834Z,1.13
2019-05-13T11:08:26.462Z,1.20
2019-05-13T11:13:18.137Z,1.20
2019-05-13T11:18:14.219Z,1.23
2019-05-13T11:23:02.358Z,1.30
2019-05-13T11:27:55.554Z,1.30
2019-05-13T11:32:45.943Z,1.03
2019-05-13T11:37:37.054Z,1.20
2019-05-13T11:42:27.982Z,1.37
2019-05-13T11:47:22.734Z,1.70
2019-05-13T11:52:16.518Z,1.50
2019-05-13T11:57:12.425Z,1.50
2019-05-13T12:02:04.373Z,1.10
2019-05-13T12:06:54.844Z,1.40
2019-05-13T12:11:44.787Z,1.00
2019-05-13T12:16:36.458Z,0.93
2019-05-13T12:21:27.364Z,1.40
2019-05-13T12:26:18.270Z,1.00
2019-05-13T12:31:12.156Z,1.30
2019-05-13T12:36:02.033Z,1.00
2019-05-13T12:40:53.073Z,1.10
2019-05-13T12:45:43.500Z,1.10
2019-05-13T12:50:35.002Z,1.60
2019-05-13T12:55:26.658Z,1.20
2019-05-13T13:00:17.558Z,1.30
2019-05-13T13:05:13.350Z,1.17
2019-05-13T13:10:00.830Z,1.10
2019-05-13T13:14:54.538Z,1.20
2019-05-13T13:19:43.378Z,1.25
2019-05-13T13:24:35.018Z,1.10
2019-05-13T13:29:25.921Z,1.30
2019-05-13T13:34:18.550Z,1.30
2019-05-13T13:39:07.734Z,1.00
2019-05-13T13:44:04.664Z,1.83
2019-05-13T13:48:54.708Z,1.65
2019-05-13T13:53:44.564Z,1.37
2019-05-13T13:58:32.600Z,1.10
2019-05-13T14:03:22.294Z,1.33
2019-05-13T14:08:13.182Z,1.20
2019-05-13T14:13:05.020Z,1.08
2019-05-13T14:17:56.488Z,1.10
2019-05-13T14:22:47.376Z,1.20
2019-05-13T14:27:39.010Z,1.00
2019-05-13T14:32:32.110Z,1.10
2019-05-13T14:37:22.334Z,1.10
2019-05-13T14:42:12.494Z,1.40
2019-05-13T14:47:04.131Z,1.17
2019-05-13T14:51:56.416Z,1.10
2019-05-13T14:56:46.706Z,1.10
2019-05-13T15:01:37.613Z,0.77
2019-05-13T15:06:28.497Z,0.60
2019-05-13T15:11:21.988Z,1.00
2019-05-13T15:16:11.786Z,1.13
2019-05-13T15:21:02.712Z,1.10
2019-05-13T15:25:54.363Z,0.90
2019-05-13T15:30:45.273Z,0.80
2019-05-13T15:35:36.196Z,0.90
2019-05-13T15:40:27.086Z,1.00
2019-05-13T15:45:20.692Z,1.50
2019-05-13T15:50:12.365Z,1.00
2019-05-13T15:55:01.520Z,0.93
2019-05-13T15:59:52.917Z,0.90
2019-05-13T16:05:05.705Z,0.90
2019-05-13T16:09:35.517Z,0.90
2019-05-13T16:14:26.397Z,0.80
2019-05-13T16:19:17.297Z,0.90
2019-05-13T16:24:11.723Z,0.90
2019-05-13T16:29:02.103Z,1.00
2019-05-13T16:33:52.268Z,0.80
2019-05-13T16:38:42.409Z,0.80
2019-05-13T16:43:34.045Z,1.10
2019-05-13T16:48:25.677Z,0.83
2019-05-13T16:53:16.564Z,0.93
2019-05-13T16:58:07.453Z,0.77
2019-05-13T17:02:58.350Z,0.90
2019-05-13T17:07:51.532Z,1.00
2019-05-13T17:12:43.009Z,1.43
2019-05-13T17:17:32.542Z,0.70
2019-05-13T17:22:24.183Z,0.80
2019-05-13T17:27:15.198Z,0.80
2019-05-13T17:32:06.818Z,0.90
2019-05-13T17:36:58.465Z,0.90
2019-05-13T17:41:52.075Z,1.27
2019-05-13T17:46:41.814Z,1.20
2019-05-13T17:51:31.917Z,1.10
2019-05-13T17:56:22.805Z,0.80
2019-05-13T18:01:13.701Z,0.70
2019-05-13T18:06:04.625Z,0.80
2019-05-13T18:10:55.514Z,0.93
2019-05-13T18:15:47.150Z,1.20
2019-05-13T18:20:38.782Z,1.20
2019-05-13T18:25:31.672Z,0.80
2019-05-13T18:30:21.325Z,1.10
2019-05-13T18:35:12.953Z,1.13
2019-05-13T18:40:03.829Z,1.00
2019-05-13T18:44:54.731Z,0.80
2019-05-13T18:49:45.625Z,1.10
2019-05-13T18:54:37.259Z,0.70
2019-05-13T18:59:28.942Z,0.80
2019-05-13T19:04:21.716Z,0.80
2019-05-13T19:09:11.189Z,0.97
2019-05-13T19:14:01.639Z,0.90
2019-05-13T19:18:53.285Z,1.00
2019-05-13T19:23:44.909Z,1.10
2019-05-13T19:28:36.537Z,0.97
2019-05-13T19:33:27.422Z,0.90
2019-05-13T19:38:18.315Z,1.00
2019-05-13T19:43:11.381Z,1.10
2019-05-13T19:48:01.245Z,1.00
2019-05-13T19:52:51.846Z,1.20
2019-05-13T19:57:42.516Z,1.13
2019-05-13T20:02:32.883Z,0.93
2019-05-13T20:07:24.530Z,1.00
2019-05-13T20:12:15.923Z,1.03
2019-05-13T20:17:07.074Z,1.10
2019-05-13T20:21:58.713Z,1.10
2019-05-13T20:26:52.012Z,1.40
2019-05-13T20:31:41.410Z,1.00
2019-05-13T20:36:32.174Z,0.83
2019-05-13T20:41:23.813Z,0.97
2019-05-13T20:46:15.444Z,1.00
2019-05-13T20:51:06.361Z,1.43
2019-05-13T20:55:57.977Z,1.20
2019-05-13T21:00:48.873Z,1.07
2019-05-13T21:05:41.533Z,0.97
2019-05-13T21:10:31.499Z,1.43
2019-05-13T21:15:21.581Z,1.00
2019-05-13T21:20:19.495Z,1.20
2019-05-13T21:25:04.123Z,1.00
2019-05-13T21:29:55.755Z,1.20
2019-05-13T21:34:46.651Z,1.10
2019-05-13T21:39:37.565Z,1.17
2019-05-13T21:44:28.453Z,1.60
2019-05-13T21:49:21.360Z,1.70
2019-05-13T21:54:11.779Z,1.67
2019-05-13T21:59:01.945Z,1.60
2019-05-13T22:03:52.834Z,1.70
2019-05-13T22:08:43.727Z,1.35
2019-05-13T22:13:35.393Z,1.40
2019-05-13T22:18:26.290Z,1.47
2019-05-13T22:23:17.926Z,1.48
2019-05-13T22:28:11.660Z,1.50
2019-05-13T22:33:01.807Z,1.40
2019-05-13T22:37:51.444Z,1.40
2019-05-13T22:42:42.338Z,1.55
2019-05-13T22:47:33.234Z,1.43
2019-05-13T22:52:24.129Z,1.50
2019-05-13T22:57:15.032Z,1.57
2019-05-13T23:02:05.926Z,1.60
2019-05-13T23:06:56.813Z,0.97
2019-05-13T23:11:48.447Z,1.80
2019-05-13T23:16:42.003Z,1.70
2019-05-13T23:21:31.284Z,1.30
2019-05-13T23:26:21.661Z,1.33
2019-05-13T23:31:12.553Z,1.10
2019-05-13T23:36:03.439Z,1.40
2019-05-13T23:40:55.130Z,1.80
2019-05-13T23:45:46.025Z,1.50
2019-05-13T23:50:36.917Z,1.47
2019-05-13T23:55:28.549Z,1.50
